Time;durP1;ratioP1;P1;durP2;ratioP2;P2;SDS_P1;SDS_P2;PMS_P1;PMS_P2;Temp;Humidity;BMP_temperature;BMP_pressure;BME280_temperature;BME280_humidity;BME280_pressure;Samples;Min_cycle;Max_cycle;Signal;HPM_P1;HPM_P2
2023/03/22 00:02:24;;;;;;;43.30;25.60;;;;;;;;;;727081;193;732079;-80
2023/03/22 00:04:49;;;;;;;45.27;26.83;;;;;;;;;;726404;195;638736;-80
2023/03/22 00:07:15;;;;;;;39.50;24.67;;;;;;;;;;732023;191;620707;-80
2023/03/22 00:09:41;;;;;;;43.33;26.50;;;;;;;;;;737837;191;624290;-81
2023/03/22 00:12:07;;;;;;;42.97;26.37;;;;;;;;;;736451;191;628899;-80
2023/03/22 00:14:33;;;;;;;44.67;26.27;;;;;;;;;;730176;191;652334;-80
2023/03/22 00:16:59;;;;;;;44.30;27.70;;;;;;;;;;729620;195;621479;-80
2023/03/22 00:19:25;;;;;;;51.27;29.20;;;;;;;;;;727524;190;625213;-80
2023/03/22 00:21:50;;;;;;;46.80;27.50;;;;;;;;;;727499;193;620860;-80
2023/03/22 00:24:16;;;;;;;47.60;26.40;;;;;;;;;;741056;191;620267;-78
2023/03/22 00:26:42;;;;;;;52.60;27.67;;;;;;;;;;738484;191;631519;-80
2023/03/22 00:29:08;;;;;;;43.30;24.00;;;;;;;;;;726372;192;626653;-81
2023/03/22 00:31:34;;;;;;;39.93;24.00;;;;;;;;;;729220;195;632434;-80
2023/03/22 00:33:59;;;;;;;48.27;24.73;;;;;;;;;;725572;195;628070;-78
2023/03/22 00:36:25;;;;;;;44.30;25.57;;;;;;;;;;725732;193;626899;-79
2023/03/22 00:38:51;;;;;;;40.80;24.80;;;;;;;;;;735015;190;628871;-79
2023/03/22 00:41:18;;;;;;;47.43;26.33;;;;;;;;;;742853;191;651620;-81
2023/03/22 00:43:44;;;;;;;45.43;24.47;;;;;;;;;;731907;191;653571;-80
2023/03/22 00:46:10;;;;;;;38.93;25.10;;;;;;;;;;727260;193;623012;-78
2023/03/22 00:48:36;;;;;;;41.17;25.30;;;;;;;;;;738474;185;627609;-79
2023/03/22 00:51:01;;;;;;;45.10;24.40;;;;;;;;;;740532;190;627442;-75
2023/03/22 00:53:28;;;;;;;45.57;27.00;;;;;;;;;;738658;190;629931;-78
2023/03/22 00:55:54;;;;;;;44.80;26.63;;;;;;;;;;740854;191;624382;-78
2023/03/22 00:58:20;;;;;;;39.33;26.40;;;;;;;;;;730963;191;625553;-79
2023/03/22 01:00:46;;;;;;;42.43;24.60;;;;;;;;;;725548;194;631452;-81
2023/03/22 01:03:12;;;;;;;41.73;24.10;;;;;;;;;;732719;191;629216;-78
2023/03/22 01:05:37;;;;;;;42.57;24.80;;;;;;;;;;742979;191;618210;-78
2023/03/22 01:08:07;;;;;;;40.60;24.03;;;;;;;;;;736681;191;629178;-80
2023/03/22 01:10:29;;;;;;;49.25;26.00;;;;;;;;;;728447;189;639846;-80
2023/03/22 01:12:55;;;;;;;47.03;25.50;;;;;;;;;;731093;191;635295;-80
2023/03/22 01:15:22;;;;;;;51.50;28.00;;;;;;;;;;726489;192;629456;-81
2023/03/22 01:17:47;;;;;;;51.30;27.80;;;;;;;;;;728676;190;626428;-80
2023/03/22 01:20:13;;;;;;;46.60;28.97;;;;;;;;;;743584;190;624515;-79
2023/03/22 01:22:38;;;;;;;54.30;29.97;;;;;;;;;;737039;191;636449;-80
2023/03/22 01:25:04;;;;;;;54.07;30.23;;;;;;;;;;727610;194;617264;-79
2023/03/22 01:27:30;;;;;;;48.40;27.13;;;;;;;;;;728072;191;625749;-78
2023/03/22 01:29:56;;;;;;;53.23;30.50;;;;;;;;;;743102;188;639574;-81
2023/03/22 01:32:22;;;;;;;69.00;33.50;;;;;;;;;;739966;191;620569;-80
2023/03/22 01:34:48;;;;;;;43.70;26.20;;;;;;;;;;728218;191;632287;-80
2023/03/22 01:37:14;;;;;;;45.93;26.87;;;;;;;;;;731075;193;628509;-79
2023/03/22 01:39:40;;;;;;;47.87;28.30;;;;;;;;;;727210;191;622351;-79
2023/03/22 01:42:05;;;;;;;53.60;29.37;;;;;;;;;;727108;193;627309;-81
2023/03/22 01:44:31;;;;;;;52.57;27.80;;;;;;;;;;729185;192;632808;-81
2023/03/22 01:46:57;;;;;;;57.00;29.20;;;;;;;;;;725384;194;619070;-80
2023/03/22 01:49:23;;;;;;;49.53;29.60;;;;;;;;;;733515;188;634883;-81
2023/03/22 01:51:49;;;;;;;45.93;27.37;;;;;;;;;;741000;191;619062;-78
2023/03/22 01:54:16;;;;;;;39.50;24.70;;;;;;;;;;737106;190;624563;-81
2023/03/22 01:56:42;;;;;;;48.50;27.27;;;;;;;;;;736888;191;641047;-81
2023/03/22 01:59:08;;;;;;;42.90;26.20;;;;;;;;;;731785;191;642918;-79
2023/03/22 02:01:34;;;;;;;40.33;25.00;;;;;;;;;;730475;194;634088;-80
2023/03/22 02:04:02;;;;;;;43.30;26.57;;;;;;;;;;727196;191;628537;-78
2023/03/22 02:06:28;;;;;;;55.20;30.40;;;;;;;;;;726799;194;625732;-80
2023/03/22 02:08:56;;;;;;;53.70;30.60;;;;;;;;;;737470;190;631633;-80
2023/03/22 02:11:19;;;;;;;55.33;29.67;;;;;;;;;;738950;191;640732;-80
2023/03/22 02:13:48;;;;;;;46.60;27.80;;;;;;;;;;735415;191;632724;-79
2023/03/22 02:16:14;;;;;;;46.43;27.63;;;;;;;;;;729174;192;647762;-77
2023/03/22 02:18:45;;;;;;;48.90;25.93;;;;;;;;;;734234;190;617864;-80
2023/03/22 02:21:17;;;;;;;56.70;32.33;;;;;;;;;;728038;191;620556;-81
2023/03/22 02:23:48;;;;;;;56.17;32.77;;;;;;;;;;726524;194;632938;-79
2023/03/22 02:26:32;;;;;;;57.67;31.97;;;;;;;;;;726442;194;631761;-78
2023/03/22 02:29:07;;;;;;;54.43;29.63;;;;;;;;;;724591;195;620511;-80
2023/03/22 02:31:47;;;;;;;56.43;31.33;;;;;;;;;;726216;195;638701;-79
2023/03/22 02:34:19;;;;;;;52.57;29.70;;;;;;;;;;732315;191;627476;-80
2023/03/22 02:36:52;;;;;;;53.97;32.20;;;;;;;;;;736420;190;622444;-81
2023/03/22 02:39:37;;;;;;;59.10;32.83;;;;;;;;;;730392;191;630511;-80
2023/03/22 02:42:03;;;;;;;56.00;32.97;;;;;;;;;;727572;194;658096;-79
2023/03/22 02:44:31;;;;;;;57.50;34.63;;;;;;;;;;726351;193;620940;-81
2023/03/22 02:47:01;;;;;;;76.87;39.10;;;;;;;;;;725350;193;639258;-78
2023/03/22 02:49:32;;;;;;;45.90;28.20;;;;;;;;;;736701;191;630877;-79
2023/03/22 02:51:57;;;;;;;46.70;28.60;;;;;;;;;;743009;190;616482;-79
2023/03/22 02:54:27;;;;;;;46.47;28.33;;;;;;;;;;732899;191;643171;-80
2023/03/22 02:56:53;;;;;;;45.97;27.07;;;;;;;;;;726662;193;621157;-79
2023/03/22 02:59:18;;;;;;;48.90;27.87;;;;;;;;;;730605;191;633547;-79
2023/03/22 03:01:44;;;;;;;54.17;30.00;;;;;;;;;;726950;193;635382;-79
2023/03/22 03:04:10;;;;;;;51.20;28.40;;;;;;;;;;733253;191;634633;-78
2023/03/22 03:06:38;;;;;;;47.20;25.67;;;;;;;;;;742769;191;619348;-78
2023/03/22 03:09:03;;;;;;;54.63;28.97;;;;;;;;;;738368;191;644210;-81
2023/03/22 03:11:28;;;;;;;51.60;29.70;;;;;;;;;;736942;191;629827;-81
2023/03/22 03:13:54;;;;;;;53.00;28.90;;;;;;;;;;731656;191;639881;-80
2023/03/22 03:16:19;;;;;;;54.93;30.93;;;;;;;;;;729177;195;643719;-78
2023/03/22 03:18:47;;;;;;;49.40;29.83;;;;;;;;;;725504;195;637475;-81
2023/03/22 03:21:15;;;;;;;53.43;32.17;;;;;;;;;;725309;194;625042;-80
2023/03/22 03:23:38;;;;;;;55.27;32.93;;;;;;;;;;728304;194;625032;-80
2023/03/22 03:26:04;;;;;;;61.70;33.60;;;;;;;;;;727251;190;628738;-81
2023/03/22 03:28:37;;;;;;;63.60;33.50;;;;;;;;;;728443;193;642109;-80
2023/03/22 03:30:56;;;;;;;57.43;32.70;;;;;;;;;;731523;193;612994;-78
2023/03/22 03:33:22;;;;;;;63.53;35.37;;;;;;;;;;728337;193;622844;-80
2023/03/22 03:35:49;;;;;;;65.57;36.10;;;;;;;;;;727941;193;625672;-79
2023/03/22 03:38:14;;;;;;;64.93;35.80;;;;;;;;;;727958;193;626864;-81
2023/03/22 03:40:41;;;;;;;67.13;35.47;;;;;;;;;;731641;191;627397;-80
2023/03/22 03:43:07;;;;;;;63.03;32.63;;;;;;;;;;727569;194;632027;-79
2023/03/22 03:45:33;;;;;;;61.23;32.70;;;;;;;;;;733796;188;1052760;-79
2023/03/22 03:47:59;;;;;;;66.80;34.27;;;;;;;;;;737361;190;619720;-79
2023/03/22 03:50:25;;;;;;;62.13;35.43;;;;;;;;;;732847;190;652841;-78
2023/03/22 03:52:50;;;;;;;59.60;34.63;;;;;;;;;;742142;190;628451;-81
2023/03/22 03:55:16;;;;;;;64.90;33.27;;;;;;;;;;743544;190;645275;-81
2023/03/22 03:57:42;;;;;;;56.90;31.70;;;;;;;;;;741829;190;630169;-79
2023/03/22 04:00:08;;;;;;;57.13;31.07;;;;;;;;;;734506;190;631520;-78
2023/03/22 04:02:34;;;;;;;55.20;33.33;;;;;;;;;;733343;191;623135;-80
2023/03/22 04:05:00;;;;;;;56.13;31.33;;;;;;;;;;738939;191;631644;-78
2023/03/22 04:07:26;;;;;;;55.97;32.20;;;;;;;;;;732781;190;635520;-80
2023/03/22 04:09:52;;;;;;;50.40;28.83;;;;;;;;;;734537;191;624513;-78
2023/03/22 04:12:18;;;;;;;52.60;31.13;;;;;;;;;;737430;191;631171;-80
2023/03/22 04:14:44;;;;;;;62.93;33.90;;;;;;;;;;729669;191;648165;-81
2023/03/22 04:17:10;;;;;;;56.23;30.37;;;;;;;;;;726728;191;665675;-80
2023/03/22 04:19:35;;;;;;;54.17;32.90;;;;;;;;;;734104;191;636654;-79
2023/03/22 04:22:01;;;;;;;57.43;31.53;;;;;;;;;;734017;191;664469;-80
2023/03/22 04:24:27;;;;;;;56.30;30.50;;;;;;;;;;728978;191;636728;-82
2023/03/22 04:26:53;;;;;;;55.70;32.40;;;;;;;;;;734575;190;636138;-79
2023/03/22 04:29:20;;;;;;;56.30;30.87;;;;;;;;;;736037;191;620303;-81
2023/03/22 04:31:45;;;;;;;59.13;33.40;;;;;;;;;;738066;190;635748;-79
2023/03/22 04:34:11;;;;;;;51.57;29.00;;;;;;;;;;737880;190;635829;-79
2023/03/22 04:36:38;;;;;;;62.03;33.77;;;;;;;;;;735725;191;651836;-80
2023/03/22 04:39:04;;;;;;;54.00;31.70;;;;;;;;;;737996;190;650097;-80
2023/03/22 04:41:28;;;;;;;44.40;26.48;;;;;;;;;;733629;190;909182;-81
2023/03/22 04:43:56;;;;;;;67.77;32.07;;;;;;;;;;736949;190;620019;-80
2023/03/22 04:46:21;;;;;;;55.20;32.97;;;;;;;;;;728757;190;1614524;-78
2023/03/22 04:48:46;;;;;;;48.67;29.60;;;;;;;;;;736522;190;828272;-81
2023/03/22 04:51:12;;;;;;;48.20;29.43;;;;;;;;;;726102;190;710958;-81
2023/03/22 04:53:38;;;;;;;50.33;29.33;;;;;;;;;;728059;191;620191;-81
2023/03/22 04:56:05;;;;;;;54.33;29.93;;;;;;;;;;725925;193;624836;-81
2023/03/22 04:58:29;;;;;;;59.77;33.90;;;;;;;;;;725464;193;673202;-81
2023/03/22 05:00:55;;;;;;;54.90;28.07;;;;;;;;;;736309;190;633821;-81
2023/03/22 05:03:21;;;;;;;50.43;28.97;;;;;;;;;;734508;191;645524;-80
2023/03/22 05:05:50;;;;;;;45.30;28.83;;;;;;;;;;731236;191;639027;-80
2023/03/22 05:08:16;;;;;;;49.20;27.77;;;;;;;;;;732856;191;618307;-81
2023/03/22 05:10:41;;;;;;;51.30;30.00;;;;;;;;;;737318;190;675150;-80
2023/03/22 05:13:07;;;;;;;50.17;30.83;;;;;;;;;;732234;190;661870;-78
2023/03/22 05:15:33;;;;;;;54.23;30.77;;;;;;;;;;734215;191;648732;-81
2023/03/22 05:17:59;;;;;;;53.97;29.40;;;;;;;;;;733641;190;632755;-80
2023/03/22 05:20:25;;;;;;;54.80;29.03;;;;;;;;;;735444;190;659373;-77
2023/03/22 05:22:55;;;;;;;57.50;33.20;;;;;;;;;;734280;190;655571;-80
2023/03/22 05:25:17;;;;;;;58.87;32.63;;;;;;;;;;736158;188;625611;-80
2023/03/22 05:27:42;;;;;;;60.73;33.90;;;;;;;;;;726773;191;633258;-79
2023/03/22 05:30:08;;;;;;;51.50;28.30;;;;;;;;;;733071;188;624047;-78
2023/03/22 05:32:36;;;;;;;54.37;31.93;;;;;;;;;;740012;190;626792;-80
2023/03/22 05:35:03;;;;;;;59.23;33.00;;;;;;;;;;732685;190;629087;-80
2023/03/22 05:37:26;;;;;;;52.77;33.13;;;;;;;;;;727982;191;635720;-80
2023/03/22 05:39:52;;;;;;;61.73;32.40;;;;;;;;;;731129;191;641540;-80
2023/03/22 05:42:18;;;;;;;60.80;32.43;;;;;;;;;;738140;191;632070;-81
2023/03/22 05:44:44;;;;;;;66.73;38.10;;;;;;;;;;730323;190;639981;-80
2023/03/22 05:47:10;;;;;;;60.00;35.07;;;;;;;;;;732652;190;630809;-80
2023/03/22 05:49:35;;;;;;;67.80;36.13;;;;;;;;;;736961;190;614775;-77
2023/03/22 05:52:04;;;;;;;70.73;35.63;;;;;;;;;;729413;190;630493;-81
2023/03/22 05:54:27;;;;;;;62.20;36.33;;;;;;;;;;735311;190;627428;-81
2023/03/22 05:56:53;;;;;;;71.23;38.13;;;;;;;;;;734472;190;638638;-79
2023/03/22 05:59:19;;;;;;;70.20;35.87;;;;;;;;;;727821;191;640839;-81
2023/03/22 06:01:45;;;;;;;62.30;36.30;;;;;;;;;;730378;190;642902;-80
2023/03/22 06:04:10;;;;;;;59.43;36.40;;;;;;;;;;735150;190;640500;-79
2023/03/22 06:06:36;;;;;;;61.50;35.77;;;;;;;;;;740736;190;631307;-79
2023/03/22 06:09:03;;;;;;;67.63;41.80;;;;;;;;;;729582;190;634275;-79
2023/03/22 06:11:29;;;;;;;64.77;36.33;;;;;;;;;;727716;191;636730;-79
2023/03/22 06:13:54;;;;;;;66.40;36.47;;;;;;;;;;732654;190;627506;-78
2023/03/22 06:16:20;;;;;;;62.80;37.13;;;;;;;;;;730111;191;629418;-80
2023/03/22 06:18:46;;;;;;;64.53;36.70;;;;;;;;;;726040;191;629878;-78
2023/03/22 06:21:11;;;;;;;67.07;38.77;;;;;;;;;;731956;191;626239;-80
2023/03/22 06:23:37;;;;;;;63.90;36.43;;;;;;;;;;725961;191;652399;-81
2023/03/22 06:26:03;;;;;;;68.83;36.80;;;;;;;;;;735188;190;644580;-81
2023/03/22 06:28:29;;;;;;;69.43;37.77;;;;;;;;;;735489;190;632593;-79
2023/03/22 06:30:55;;;;;;;68.80;37.10;;;;;;;;;;729475;185;633819;-80
2023/03/22 06:33:21;;;;;;;60.23;36.10;;;;;;;;;;731998;191;649778;-80
2023/03/22 06:35:47;;;;;;;70.15;39.45;;;;;;;;;;727691;191;639193;-79
2023/03/22 06:38:12;;;;;;;71.80;38.80;;;;;;;;;;729849;191;625768;-79
2023/03/22 06:40:38;;;;;;;71.00;39.07;;;;;;;;;;735764;191;624042;-78
2023/03/22 06:43:04;;;;;;;66.57;38.27;;;;;;;;;;731678;191;629872;-81
2023/03/22 06:45:32;;;;;;;77.43;41.80;;;;;;;;;;736275;191;631048;-78
2023/03/22 06:47:56;;;;;;;68.57;38.30;;;;;;;;;;727092;191;627852;-79
2023/03/22 06:50:22;;;;;;;66.90;40.30;;;;;;;;;;733659;191;626269;-79
2023/03/22 06:52:48;;;;;;;71.60;38.63;;;;;;;;;;730876;191;653475;-79
2023/03/22 06:55:14;;;;;;;59.70;37.03;;;;;;;;;;735974;191;628541;-81
2023/03/22 06:57:39;;;;;;;62.23;37.53;;;;;;;;;;736940;191;620163;-80
2023/03/22 07:00:06;;;;;;;72.60;38.57;;;;;;;;;;736632;190;627981;-79
2023/03/22 07:02:31;;;;;;;60.50;37.90;;;;;;;;;;739162;190;638350;-80
2023/03/22 07:04:57;;;;;;;63.30;36.47;;;;;;;;;;735883;190;629729;-79
2023/03/22 07:07:23;;;;;;;68.00;38.40;;;;;;;;;;739422;191;627583;-81
2023/03/22 07:09:50;;;;;;;69.63;37.47;;;;;;;;;;734134;191;627310;-79
2023/03/22 07:12:15;;;;;;;70.83;35.20;;;;;;;;;;733550;191;643393;-78
2023/03/22 07:14:41;;;;;;;54.90;38.40;;;;;;;;;;727693;191;631765;-80
2023/03/22 07:17:07;;;;;;;54.80;34.07;;;;;;;;;;740481;190;716555;-78
2023/03/22 07:19:33;;;;;;;57.40;35.10;;;;;;;;;;739669;188;659446;-79
2023/03/22 07:21:59;;;;;;;65.53;33.93;;;;;;;;;;734721;190;627378;-81
2023/03/22 07:24:24;;;;;;;53.70;35.53;;;;;;;;;;732056;190;628482;-79
2023/03/22 07:26:50;;;;;;;52.57;33.07;;;;;;;;;;741328;191;634022;-81
2023/03/22 07:29:16;;;;;;;57.00;36.90;;;;;;;;;;735986;191;659020;-78
2023/03/22 07:31:42;;;;;;;51.30;33.53;;;;;;;;;;729887;190;630796;-79
2023/03/22 07:34:08;;;;;;;56.77;35.10;;;;;;;;;;734936;191;627781;-79
2023/03/22 07:36:34;;;;;;;51.47;32.77;;;;;;;;;;725353;195;650819;-80
2023/03/22 07:39:00;;;;;;;52.80;33.83;;;;;;;;;;730134;190;630285;-78
2023/03/22 07:41:27;;;;;;;55.13;35.87;;;;;;;;;;735971;190;622135;-78
2023/03/22 07:43:51;;;;;;;52.23;33.00;;;;;;;;;;729375;191;634660;-79
2023/03/22 07:46:17;;;;;;;61.40;33.53;;;;;;;;;;735990;191;641031;-78
2023/03/22 07:48:44;;;;;;;54.45;33.03;;;;;;;;;;740704;188;632854;-81
2023/03/22 07:51:09;;;;;;;58.53;34.43;;;;;;;;;;742846;191;632263;-80
2023/03/22 07:53:35;;;;;;;47.40;29.70;;;;;;;;;;726123;191;618730;-79
2023/03/22 07:56:01;;;;;;;46.10;29.70;;;;;;;;;;732670;191;632615;-79
2023/03/22 07:58:27;;;;;;;49.50;31.53;;;;;;;;;;738888;190;650619;-80
2023/03/22 08:00:53;;;;;;;47.27;29.70;;;;;;;;;;726380;193;630079;-78
2023/03/22 08:03:20;;;;;;;43.43;27.87;;;;;;;;;;728735;191;629266;-79
2023/03/22 08:05:45;;;;;;;41.80;27.13;;;;;;;;;;742022;190;621036;-81
2023/03/22 08:08:12;;;;;;;40.17;26.70;;;;;;;;;;738880;191;628829;-79
2023/03/22 08:10:36;;;;;;;42.27;27.17;;;;;;;;;;725915;191;637194;-80
2023/03/22 08:13:02;;;;;;;45.43;28.27;;;;;;;;;;732337;190;631466;-80
2023/03/22 08:15:28;;;;;;;36.93;25.20;;;;;;;;;;733883;190;628694;-78
2023/03/22 08:17:56;;;;;;;39.23;26.77;;;;;;;;;;727688;191;629885;-81
2023/03/22 08:20:20;;;;;;;38.27;26.20;;;;;;;;;;736297;190;629167;-81
2023/03/22 08:22:46;;;;;;;35.90;23.83;;;;;;;;;;730477;190;647512;-78
2023/03/22 08:25:13;;;;;;;36.63;24.27;;;;;;;;;;727486;191;624620;-77
2023/03/22 08:27:37;;;;;;;32.30;22.60;;;;;;;;;;732877;190;771961;-80
2023/03/22 08:30:04;;;;;;;32.67;22.33;;;;;;;;;;731971;190;618810;-81
2023/03/22 08:32:29;;;;;;;30.33;21.90;;;;;;;;;;735262;190;635081;-78
2023/03/22 08:34:55;;;;;;;29.47;20.53;;;;;;;;;;727503;194;633993;-78
2023/03/22 08:37:21;;;;;;;34.67;20.67;;;;;;;;;;729700;193;625478;-79
2023/03/22 08:39:47;;;;;;;32.10;19.00;;;;;;;;;;725857;195;630676;-78
2023/03/22 08:42:13;;;;;;;26.20;19.20;;;;;;;;;;725937;195;631094;-78
2023/03/22 08:44:39;;;;;;;23.30;18.07;;;;;;;;;;726035;195;631057;-81
2023/03/22 08:47:04;;;;;;;20.30;16.47;;;;;;;;;;736424;191;670736;-79
2023/03/22 08:49:30;;;;;;;18.63;13.70;;;;;;;;;;727306;191;630223;-80
2023/03/22 08:51:57;;;;;;;19.30;14.63;;;;;;;;;;730903;190;626987;-81
2023/03/22 08:54:23;;;;;;;19.37;15.00;;;;;;;;;;731101;191;623708;-79
2023/03/22 08:56:49;;;;;;;17.60;11.20;;;;;;;;;;734941;190;632617;-81
2023/03/22 08:59:14;;;;;;;14.40;11.20;;;;;;;;;;739161;188;612388;-79
2023/03/22 09:01:40;;;;;;;15.00;11.40;;;;;;;;;;735510;191;626702;-80
2023/03/22 09:04:06;;;;;;;14.33;10.90;;;;;;;;;;727039;194;636880;-81
2023/03/22 09:06:33;;;;;;;12.20;10.03;;;;;;;;;;727072;193;625434;-80
2023/03/22 09:08:58;;;;;;;13.13;10.50;;;;;;;;;;734676;191;629791;-79
2023/03/22 09:11:24;;;;;;;15.47;9.40;;;;;;;;;;729542;191;620469;-80
2023/03/22 09:13:50;;;;;;;9.97;8.97;;;;;;;;;;736723;191;637991;-82
2023/03/22 09:16:16;;;;;;;15.10;9.70;;;;;;;;;;735468;191;615601;-82
2023/03/22 09:18:41;;;;;;;11.40;10.17;;;;;;;;;;730427;191;657429;-80
2023/03/22 09:21:07;;;;;;;11.60;9.73;;;;;;;;;;735451;191;717028;-82
2023/03/22 09:23:34;;;;;;;11.50;9.43;;;;;;;;;;726894;190;673606;-82
2023/03/22 09:25:59;;;;;;;13.07;9.57;;;;;;;;;;734831;190;632434;-81
2023/03/22 09:28:25;;;;;;;13.13;10.93;;;;;;;;;;737133;190;1347431;-81
2023/03/22 09:30:51;;;;;;;19.00;10.30;;;;;;;;;;740930;190;625604;-80
2023/03/22 09:33:17;;;;;;;11.93;9.20;;;;;;;;;;729195;195;651847;-81
2023/03/22 09:35:42;;;;;;;12.73;9.57;;;;;;;;;;735004;191;623824;-81
2023/03/22 09:38:09;;;;;;;9.70;8.70;;;;;;;;;;741152;190;787283;-82
2023/03/22 09:40:34;;;;;;;12.23;9.23;;;;;;;;;;741632;187;642851;-78
2023/03/22 09:43:00;;;;;;;11.10;9.50;;;;;;;;;;731998;190;640613;-81
2023/03/22 09:45:31;;;;;;;11.50;9.37;;;;;;;;;;730109;191;632487;-81
2023/03/22 09:47:52;;;;;;;13.57;9.97;;;;;;;;;;725509;191;672041;-80
2023/03/22 09:50:19;;;;;;;10.10;8.53;;;;;;;;;;729575;195;614272;-82
2023/03/22 09:52:44;;;;;;;11.73;9.97;;;;;;;;;;725207;195;682206;-81
2023/03/22 09:55:11;;;;;;;13.80;9.70;;;;;;;;;;726020;195;625443;-80
2023/03/22 09:57:37;;;;;;;15.07;11.00;;;;;;;;;;733094;191;735472;-79
2023/03/22 10:00:19;;;;;;;12.20;9.23;;;;;;;;;;736250;188;622356;-79
2023/03/22 10:02:54;;;;;;;12.73;9.70;;;;;;;;;;729098;190;688349;-80
2023/03/22 10:05:20;;;;;;;13.67;10.03;;;;;;;;;;735263;191;631493;-79
2023/03/22 10:07:47;;;;;;;12.77;10.67;;;;;;;;;;735054;191;688455;-81
2023/03/22 10:10:16;;;;;;;14.80;10.33;;;;;;;;;;741262;191;616825;-80
2023/03/22 10:12:39;;;;;;;14.00;11.10;;;;;;;;;;736668;191;643343;-79
2023/03/22 10:15:05;;;;;;;11.70;9.57;;;;;;;;;;736932;191;624379;-80
2023/03/22 10:17:31;;;;;;;13.45;10.10;;;;;;;;;;735027;190;1343728;-80
2023/03/22 10:19:57;;;;;;;10.50;9.37;;;;;;;;;;743377;190;621673;-80
2023/03/22 10:22:23;;;;;;;10.43;9.20;;;;;;;;;;732153;191;632438;-81
2023/03/22 10:24:49;;;;;;;11.70;10.13;;;;;;;;;;726896;193;636527;-80
2023/03/22 10:27:15;;;;;;;13.93;9.20;;;;;;;;;;729542;191;625426;-81
2023/03/22 10:29:42;;;;;;;12.37;10.47;;;;;;;;;;725336;192;661594;-81
2023/03/22 10:32:17;;;;;;;13.97;10.40;;;;;;;;;;727458;191;1536703;-81
2023/03/22 10:34:42;;;;;;;17.20;9.40;;;;;;;;;;738411;189;642017;-81
2023/03/22 10:37:10;;;;;;;11.10;8.47;;;;;;;;;;737739;191;618475;-81
2023/03/22 10:39:36;;;;;;;17.97;8.90;;;;;;;;;;728412;193;623162;-81
2023/03/22 10:42:02;;;;;;;9.73;8.63;;;;;;;;;;727373;190;707202;-79
2023/03/22 10:44:28;;;;;;;14.33;10.30;;;;;;;;;;731237;192;638220;-80
2023/03/22 10:46:54;;;;;;;13.43;9.80;;;;;;;;;;724499;194;661130;-81
2023/03/22 10:49:19;;;;;;;12.80;8.30;;;;;;;;;;734650;188;624481;-79
2023/03/22 10:51:45;;;;;;;11.67;9.63;;;;;;;;;;731472;192;639134;-77
2023/03/22 10:54:12;;;;;;;10.47;7.97;;;;;;;;;;711061;197;635394;-79
2023/03/22 10:56:38;;;;;;;10.53;8.60;;;;;;;;;;717295;197;633991;-80
2023/03/22 10:59:04;;;;;;;10.73;8.23;;;;;;;;;;720898;195;630806;-78
2023/03/22 11:01:30;;;;;;;11.97;8.83;;;;;;;;;;724609;194;624969;-80
2023/03/22 11:03:56;;;;;;;9.83;7.07;;;;;;;;;;713255;197;629553;-79
2023/03/22 11:06:22;;;;;;;10.03;7.20;;;;;;;;;;713506;195;617283;-79
2023/03/22 11:08:48;;;;;;;12.73;8.37;;;;;;;;;;722713;193;632439;-79
2023/03/22 11:11:15;;;;;;;9.00;6.77;;;;;;;;;;721626;191;629005;-79
2023/03/22 11:13:41;;;;;;;9.43;7.43;;;;;;;;;;725688;194;641573;-78
2023/03/22 11:16:07;;;;;;;14.17;7.57;;;;;;;;;;729019;190;627239;-80
2023/03/22 11:18:32;;;;;;;14.00;7.67;;;;;;;;;;741670;191;627135;-78
2023/03/22 11:21:00;;;;;;;8.53;6.90;;;;;;;;;;739362;191;632153;-80
2023/03/22 11:23:27;;;;;;;10.30;7.37;;;;;;;;;;720482;193;639123;-78
2023/03/22 11:25:52;;;;;;;9.57;7.50;;;;;;;;;;732599;191;614648;-79
2023/03/22 11:28:19;;;;;;;10.10;6.07;;;;;;;;;;736449;191;643646;-79
2023/03/22 11:30:59;;;;;;;8.97;6.37;;;;;;;;;;730116;191;634013;-78
2023/03/22 11:33:25;;;;;;;10.40;7.13;;;;;;;;;;736187;191;638905;-79
2023/03/22 11:35:53;;;;;;;6.20;5.27;;;;;;;;;;729713;191;648118;-79
2023/03/22 11:38:36;;;;;;;6.60;4.77;;;;;;;;;;736389;191;628357;-79
2023/03/22 11:41:02;;;;;;;7.10;5.33;;;;;;;;;;732057;191;632063;-78
2023/03/22 11:43:42;;;;;;;8.77;5.40;;;;;;;;;;734521;190;635056;-78
2023/03/22 11:46:07;;;;;;;6.10;4.60;;;;;;;;;;737484;189;622574;-81
2023/03/22 11:48:33;;;;;;;6.30;4.90;;;;;;;;;;730554;190;623207;-81
2023/03/22 11:51:00;;;;;;;8.37;6.20;;;;;;;;;;732097;190;626491;-79
2023/03/22 11:53:25;;;;;;;9.60;5.23;;;;;;;;;;727377;193;733846;-80
2023/03/22 11:55:51;;;;;;;9.27;6.70;;;;;;;;;;736816;191;738979;-80
2023/03/22 11:58:27;;;;;;;9.83;6.73;;;;;;;;;;742875;190;624358;-80
2023/03/22 12:00:53;;;;;;;9.30;6.47;;;;;;;;;;742422;190;628217;-80
2023/03/22 12:03:19;;;;;;;9.33;6.60;;;;;;;;;;731900;190;621852;-79
2023/03/22 12:05:45;;;;;;;6.80;5.53;;;;;;;;;;726024;191;627079;-78
2023/03/22 12:08:13;;;;;;;10.43;7.40;;;;;;;;;;737365;191;636744;-81
2023/03/22 12:10:39;;;;;;;7.30;5.53;;;;;;;;;;737842;190;647063;-80
2023/03/22 12:13:25;;;;;;;9.50;6.80;;;;;;;;;;732093;191;624195;-81
2023/03/22 12:15:51;;;;;;;8.37;6.73;;;;;;;;;;723810;194;639537;-81
2023/03/22 12:18:18;;;;;;;11.23;7.90;;;;;;;;;;734665;191;639685;-80
2023/03/22 12:20:49;;;;;;;9.70;7.73;;;;;;;;;;734183;191;654924;-78
2023/03/22 12:23:15;;;;;;;12.10;9.20;;;;;;;;;;732344;191;651230;-78
2023/03/22 12:25:41;;;;;;;10.07;7.10;;;;;;;;;;735411;191;640235;-79
2023/03/22 12:28:07;;;;;;;8.30;6.50;;;;;;;;;;725635;194;674738;-78
2023/03/22 12:30:33;;;;;;;12.97;7.70;;;;;;;;;;725253;195;630779;-78
2023/03/22 12:33:00;;;;;;;9.07;7.87;;;;;;;;;;725105;195;609697;-80
2023/03/22 12:35:26;;;;;;;8.73;6.90;;;;;;;;;;724786;195;697886;-81
2023/03/22 12:37:51;;;;;;;14.10;7.87;;;;;;;;;;726418;194;634525;-81
2023/03/22 12:40:19;;;;;;;7.83;5.97;;;;;;;;;;705546;198;638125;-80
2023/03/22 12:42:45;;;;;;;9.93;6.73;;;;;;;;;;704822;198;637746;-81
2023/03/22 12:45:11;;;;;;;12.73;7.60;;;;;;;;;;730555;192;651129;-79
2023/03/22 12:47:39;;;;;;;8.87;7.07;;;;;;;;;;728815;191;632432;-78
2023/03/22 12:50:04;;;;;;;12.83;7.00;;;;;;;;;;732946;188;626391;-79
2023/03/22 12:52:39;;;;;;;9.20;7.00;;;;;;;;;;726892;191;615500;-78
2023/03/22 12:55:04;;;;;;;6.73;5.07;;;;;;;;;;738368;190;674018;-78
2023/03/22 12:57:30;;;;;;;8.40;6.57;;;;;;;;;;725874;191;632860;-79
2023/03/22 12:59:56;;;;;;;8.77;6.73;;;;;;;;;;740161;190;629357;-78
2023/03/22 13:02:23;;;;;;;9.80;7.17;;;;;;;;;;741383;190;630810;-80
2023/03/22 13:04:48;;;;;;;9.93;6.20;;;;;;;;;;745615;187;622520;-77
2023/03/22 13:07:15;;;;;;;6.13;5.00;;;;;;;;;;740678;190;634207;-79
2023/03/22 13:09:42;;;;;;;8.77;5.47;;;;;;;;;;725907;191;623000;-78
2023/03/22 13:12:14;;;;;;;8.10;6.10;;;;;;;;;;731412;194;629792;-78
2023/03/22 13:14:45;;;;;;;9.30;8.03;;;;;;;;;;737769;191;623736;-79
2023/03/22 13:17:11;;;;;;;9.40;7.87;;;;;;;;;;737419;190;644466;-77
2023/03/22 13:19:37;;;;;;;11.87;6.97;;;;;;;;;;738026;187;647634;-78
2023/03/22 13:22:08;;;;;;;9.27;6.70;;;;;;;;;;729322;195;635221;-79
2023/03/22 13:24:35;;;;;;;9.07;6.83;;;;;;;;;;738502;188;622063;-78
2023/03/22 13:27:00;;;;;;;10.73;7.30;;;;;;;;;;731270;191;630204;-80
2023/03/22 13:29:36;;;;;;;9.07;7.30;;;;;;;;;;727206;191;637609;-79
2023/03/22 13:32:03;;;;;;;11.40;9.00;;;;;;;;;;729602;192;628152;-80
2023/03/22 13:34:30;;;;;;;13.93;7.13;;;;;;;;;;725361;192;651112;-80
2023/03/22 13:36:56;;;;;;;7.87;6.17;;;;;;;;;;731987;191;644555;-78
2023/03/22 13:39:24;;;;;;;9.20;6.43;;;;;;;;;;729349;191;642870;-80
2023/03/22 13:41:48;;;;;;;9.20;6.33;;;;;;;;;;730703;194;619144;-79
2023/03/22 13:44:18;;;;;;;8.50;6.23;;;;;;;;;;727397;192;637947;-78
2023/03/22 13:46:44;;;;;;;11.77;7.37;;;;;;;;;;726969;193;640806;-78
2023/03/22 13:49:21;;;;;;;9.37;6.90;;;;;;;;;;737386;191;638186;-78
2023/03/22 13:51:47;;;;;;;6.90;5.63;;;;;;;;;;730287;193;627241;-78
2023/03/22 13:54:21;;;;;;;7.83;6.47;;;;;;;;;;727234;190;645440;-80
2023/03/22 13:56:46;;;;;;;9.40;5.87;;;;;;;;;;726943;193;631632;-77
2023/03/22 13:59:17;;;;;;;6.63;5.23;;;;;;;;;;726806;193;643698;-78
2023/03/22 14:02:00;;;;;;;7.13;5.30;;;;;;;;;;730721;193;619202;-78
2023/03/22 14:04:28;;;;;;;8.40;5.17;;;;;;;;;;727181;194;637959;-79
2023/03/22 14:06:53;;;;;;;8.43;5.97;;;;;;;;;;707313;197;633840;-78
2023/03/22 14:09:21;;;;;;;8.63;4.43;;;;;;;;;;711651;195;629053;-80